Clarksville, New Hampshire
Current Conditions -  °F | °C
As of 9:28 AM on Sunday 25 Jan 2015 (Local Time) from CYSC Reporting Station
Light Snow Light Snow  
Wind Chill: -12°   Ceiling: Unl
Heat Index:   Visibility: 9mi
Dew Point:   Wind: 17mph
Humidity: 72%   Direction: 290°WNW
Pressure: 29.59"   Gusts: 23mph
Location:  45.1081°N, 71.25°W
Report Text: CYSC 251428Z AUTO 29015G20KT 9SM -SN CLR M14/M18 A2959 RMK SLP036
Loading
Personal Weather Stations






























Interactive Weather Map New forecast layout! Learn more

10-Day Weather Forecast

Advertisements
Track Severe Weather on mobile